CST,Max TemperatureF,Mean TemperatureF,Min TemperatureF,Max Dew PointF,MeanDew PointF,Min DewpointF,Max Humidity, Mean Humidity, Min Humidity, Max Sea Level PressureIn, Mean Sea Level PressureIn, Min Sea Level PressureIn, Max VisibilityMiles, Mean VisibilityMiles, Min VisibilityMiles, Max Wind SpeedMPH, Mean Wind SpeedMPH, Max Gust SpeedMPH,PrecipitationIn, CloudCover, Events, WindDirDegrees
2013-2-1,39,25,10,13,7,1,73,50,27,30.51,30.37,30.22,10,10,10,20,8,25,0.00,0,,129
2013-2-2,53,38,23,28,23,14,68,53,38,30.24,30.20,30.17,10,10,10,17,7,25,0.00,1,,286
2013-2-3,53,46,38,28,23,17,64,45,26,30.26,30.16,30.01,10,10,10,17,9,26,0.00,0,,274
2013-2-4,58,49,40,44,36,23,86,63,39,29.99,29.90,29.83,10,10,6,17,7,24,0.31,4,Rain-Thunderstorm,230
2013-2-5,66,49,31,41,32,26,96,60,24,30.08,29.99,29.93,10,10,6,15,4,24,0.00,0,,307
2013-2-6,60,48,35,41,34,28,76,60,43,30.17,30.08,30.00,10,10,10,18,11,23,0.00,1,,130
2013-2-7,65,54,42,54,46,39,100,80,60,30.05,29.93,29.86,10,7,2,16,6,24,0.31,7,Rain,7
2013-2-8,50,41,32,38,31,28,92,71,49,30.31,30.24,30.06,10,10,7,16,7,23,0.00,3,,21
2013-2-9,40,36,32,38,31,28,92,81,70,30.27,30.14,29.92,10,8,5,21,13,25,0.02,7,Rain,125
2013-2-10,64,52,40,52,41,24,100,63,25,30.00,29.77,29.66,10,7,1,23,12,31,0.66,5,Rain-Thunderstorm,182
2013-2-11,53,43,32,25,23,20,64,45,26,30.19,30.12,30.02,10,10,10,17,5,23,0.00,0,,298
2013-2-12,44,35,26,34,28,22,92,73,53,30.15,30.02,29.91,10,9,2,14,5,20,0.21,5,Rain-Snow,64
2013-2-13,51,42,32,34,32,28,100,71,41,30.01,29.95,29.90,10,8,2,16,8,23,0.06,5,Snow,284
2013-2-14,59,50,41,31,28,20,62,46,30,30.14,30.01,29.94,10,10,10,15,8,20,0.00,1,,290
2013-2-15,42,34,26,30,20,11,78,54,30,30.31,30.26,30.14,10,10,10,16,8,23,0.00,2,,308
2013-2-16,40,33,25,23,18,11,81,57,32,30.33,30.25,30.16,10,8,0,15,6,22,T,7,Fog-Snow,316
2013-2-17,66,49,32,31,22,15,49,34,19,30.16,30.02,29.86,10,10,10,20,10,26,0.00,1,,159
2013-2-18,56,45,33,52,41,23,83,62,41,30.07,29.78,29.61,10,9,2,23,15,36,0.18,6,Rain-Thunderstorm,215
2013-2-19,45,35,24,21,16,11,69,49,28,30.30,30.23,30.11,10,10,10,22,8,31,0.00,0,,301
2013-2-20,32,28,24,23,15,10,68,57,45,30.34,30.23,30.12,10,8,0,15,6,20,0.03,6,Snow,117
2013-2-21,35,31,26,32,26,16,100,75,50,30.15,29.88,29.73,10,5,1,26,12,37,0.52,8,Rain-Snow-Thunderstorm,119
2013-2-22,38,31,24,32,24,16,96,78,59,30.11,29.99,29.84,10,10,8,18,7,28,0.00,3,,289
2013-2-23,46,33,20,24,21,19,92,67,41,30.11,30.03,29.96,10,9,7,10,4,15,0.00,0,,317
2013-2-24,56,41,25,31,28,22,92,67,41,30.04,29.97,29.90,10,10,9,18,9,24,0.00,0,,128
2013-2-25,50,40,30,39,34,26,100,71,42,29.90,29.61,29.39,10,7,2,23,9,29,0.87,6,Rain-Thunderstorm,72
2013-2-26,36,34,32,35,31,28,100,91,82,29.86,29.49,29.31,10,5,1,22,11,30,0.08,8,Rain-Snow,292
2013-2-27,40,36,32,30,27,25,85,72,59,30.04,29.94,29.78,10,9,6,21,11,31,0.00,8,,292
2013-2-28,38,34,29,25,24,21,78,69,59,30.18,30.11,30.00,10,10,7,18,12,24,0.00,7,,309